Tiempo atmosférico en la estación meteorológica de Lugo Aeropuerto, Lugo (445 m.)



Fecha
DESCASC
Temp. máxima en grados centígrados (hora)
DESCASC
Temp. mínima en grados centígrados (hora)
DESCASC
Temp. media en grados centígrados
DESCASC
Racha de viento máxima en m/sg (hora)
DESCASC
Velocidad máxima media en intervalos de 10 minutos(hora)
DESCASC
Precipitaciones diarias en mm
DESCASC
Precipitaciones de 00:00 a 06:00 en mm
DESCASC
Precipitaciones de 06:00 a 12:00 en mm
DESCASC
Precipitaciones de 12:00 a 18:00 en mm
DESCASC
Precipitaciones de 18:00 a 24:00 en mm
DESCASC
29-03-2020 14.9 (14:20) 2.3 (07:20) 8.6 11.67 (18:10) 6.11 (17:50) 0 0 0 0 0
28-03-2020 18.1 (15:30) -0.7 (05:30) 8.7 8.89 (18:00) 5.28 (18:40) 0 0 0 0 0
27-03-2020 15.3 (14:50) 0.4 (07:40) 7.9 8.33 (15:00) 4.72 (03:20) 0 0 0 0 0
26-03-2020 13.8 (14:40) -0.8 (-00:0) 6.5 7.78 (18:30) 3.89 (11:30) 0 0 0 0 0
25-03-2020 20.2 (15:10) 3.4 (00:00) 11.8 7.5 (17:00) 3.89 (16:30) 0 0 0 0 0
24-03-2020 19.8 (15:50) 1.9 (00:00) 10.8 6.67 (17:50) 3.33 (17:50) 0 0 0 0 0
23-03-2020 14.1 (12:50) 7.3 (00:00) 10.7 7.5 (15:30) 3.33 (20:50) 0 0 0 0 0
22-03-2020 13.5 (14:10) 8.6 (06:20) 11.1 7.5 (18:10) 3.06 (18:00) 0 0 0 0 0
21-03-2020 18.4 (14:50) 7.3 (00:00) 12.8 5.83 (18:00) 3.61 (18:00) 0.6 0 0 0.2 0.4
20-03-2020 16.6 (16:10) 9.3 (00:00) 13 10.28 (16:40) 3.61 (16:40) 10.4 0 0.8 9.2 0.4
19-03-2020 22.4 (16:10) 4.4 (00:00) 13.4 10.83 (18:30) 5 (18:30) 21.4 0 0 0 21.4
18-03-2020 21.7 (16:30) 3.5 (00:00) 12.6 6.39 (18:20) 3.33 (18:20) 0 0 0 0 0
17-03-2020 15.3 (13:40) 3.8 (00:00) 9.6 9.17 (13:50) 3.89 (12:10) 0 0 0 0 0
16-03-2020 10.4 (15:00) 2.3 (00:00) 6.3 11.94 (17:20) 5.28 (17:20) 8.2 1.8 5.4 1 0
15-03-2020 12.8 (12:00) 0 (00:00) 6.4 10.28 (12:30) 4.17 (11:20) 14.4 0 0 9.4 5
14-03-2020 17.7 (16:40) 4 (00:00) 10.9 4.72 (11:20) 2.5 (03:40) 0 0 0 0 0
13-03-2020 12.6 (16:10) 6.5 (04:10) 9.6 8.06 (00:40) 3.89 (13:50) 0 0 0 0 0
12-03-2020 12.7 (12:30) 6.4 (00:00) 9.5 9.17 (19:20) 4.72 (16:40) 0 0 0 0 0
11-03-2020 22.8 (16:30) 5.6 (00:00) 14.2 6.39 (17:50) 3.33 (16:30) 0 0 0 0 0
10-03-2020 20.2 (15:50) 2.3 (00:00) 11.3 9.44 (14:40) 5.28 (16:50) 0 0 0 0 0
09-03-2020 15.5 (17:10) 3.9 (00:00) 9.7 6.39 (15:30) 3.33 (13:50) 0 0 0 0 0
08-03-2020 15.6 (16:00) 6.4 (00:00) 11 11.67 (15:20) 6.94 (15:20) 0.2 0 0.2 0 0
07-03-2020 15.4 (17:00) 6.6 (00:00) 11 6.94 (13:10) 3.89 (13:10) 0.2 0.2 0 0 0
06-03-2020 10.6 (15:40) 4.4 (00:00) 7.5 11.94 (05:30) 4.72 (15:50) 7.6 5.2 1.8 0.4 0.2
05-03-2020 12.7 (00:00) 6.6 (00:00) 9.6 12.5 (15:30) 6.67 (05:40) 20.2 14.8 1.2 2 2.2
04-03-2020 16.2 (15:40) 11.4 (00:00) 13.8 13.89 (15:50) 7.22 (15:50) 2.6 0.2 1 0.2 1.2
03-03-2020 16.4 (14:20) 6.7 (00:00) 11.5 11.94 (06:10) 6.11 (09:20) 8.2 4 3 0 1.2
02-03-2020 11.7 (01:20) 4.5 (00:00) 8.1 16.94 (01:20) 7.5 (00:20) 16.6 11.2 3.8 1.6 0
01-03-2020 13.6 (13:10) 7.2 (00:00) 10.4 17.78 (23:40) 10 (23:40) 26.6 9 0 0 17.6
29-02-2020 10.8 (12:50) 6.7 (00:00) 8.8 16.39 (04:50) 7.5 (11:50) 10.4 8.2 0.6 0.4 1.2

Gráficas

Temp. máximas Temp. mínimas Temp. medias Precipitaciones Rachas de viento máximas Velocidades máximas media en intervalos de 10 minutos

Datos horarios

Fecha y hora oficial Temperatura (ºC) Velocidad del viento (km/h) Dirección del viento Racha (km/h) Dirección de racha Precipitación (mm) Presión (hPa) Tendencia (hPa) Humedad (%)
2020-03-29 23:00:00 7.2 10 Nordeste 28 Nordeste 0 967.8 0.4 89
2020-03-29 22:00:00 7.2 12 Nordeste 30 Este 0 967.5 0.6 90
2020-03-29 21:00:00 7.9 11 Nordeste 35 Nordeste 0 967.2 0.5 86
2020-03-29 20:00:00 9.5 11 Nordeste 32 Nordeste 0 967.4 0.6 79
2020-03-29 19:00:00 11.6 12 Nordeste 42 Nordeste 0 966.9 -0.3 63
2020-03-29 18:00:00 12.7 18 Nordeste 41 Nordeste 0 966.7 -0.7 60
2020-03-29 17:00:00 12.8 14 Nordeste 37 Nordeste 0 966.8 -0.8 65
2020-03-29 16:00:00 12 10 Nordeste 28 Nordeste 0 967.2 -0.8 69
2020-03-29 15:00:00 13.4 10 Nordeste 26 Nordeste 0 967.4 -1 66
2020-03-29 14:00:00 14.6 9 Nordeste 22 Nordeste 0 967.6 -0.6 59
2020-03-29 13:00:00 13.4 9 Nordeste 21 Nordeste 0 968 0 63
2020-03-29 12:00:00 10.9 12 Nordeste 23 Nordeste 0 968.4 0.5 69
2020-03-29 11:00:00 10 13 Este 24 Nordeste 0 968.2 0.5 74
2020-03-29 10:00:00 7.8 8 Nordeste 16 Nordeste 0 968 0.5 88
2020-03-29 09:00:00 4.2 4 Nordeste 11 Este 0 967.9 0.5 99
2020-03-29 08:00:00 2.7 4 Este 8 Sudeste 0 967.7 0.1 98
2020-03-29 07:00:00 2.4 4 Este 7 Este 0 967.5 -0.5 96
2020-03-29 06:00:00 2.4 3 Sudeste 5 Sudeste 0 967.4 -0.8 97
2020-03-29 05:00:00 2.6 2 Sur 7 Sudeste 0 967.6 -0.8 95
2020-03-29 03:00:00 4.5 4 Sudeste 12 Este 0 968.2 0 92
2020-03-29 01:00:00 6.2 4 Este 12 Este 0 968.4 0.3 89
2020-03-29 00:00:00 6.6 7 Nordeste 17 Nordeste 0 968.4 0.7 92
2020-03-28 23:00:00 7.1 10 Nordeste 18 Nordeste 0 968.2 1.1 90
2020-03-28 22:00:00 7.4 8 Nordeste 17 Nordeste 0 968.1 1.6 89
2020-03-28 21:00:00 8.2 4 Nordeste 19 Nordeste 0 967.7 2.1 86
2020-03-28 20:00:00 9.5 9 Nordeste 26 Nordeste 0 967.1 1.8 80
2020-03-28 19:00:00 11.7 13 Nordeste 30 Este 0 966.5 1.2 68
2020-03-28 18:00:00 13.7 17 Nordeste 32 Este 0 965.6 0.1 61
2020-03-28 17:00:00 16.1 11 Nordeste 26 Nordeste 0 965.3 -0.8 35
2020-03-28 16:00:00 17.3 8 Nordeste 23 Nordeste 0 965.3 -1.1 36
2020-03-28 15:00:00 17.8 8 Noroeste 19 Noroeste 0 965.5 -1.1 37
2020-03-28 14:00:00 16.2 6 Noroeste 14 Norte 0 966.1 -0.8 38
2020-03-28 13:00:00 13.8 5 Noroeste 10 Norte 0 966.4 -0.2 48
2020-03-28 12:00:00 11.6 4 Oeste 8 Noroeste 0 966.6 0.5 61
2020-03-28 11:00:00 6.9 4 Noroeste 7 Norte 0 966.9 1.4 90
2020-03-28 10:00:00 2.4 3 Noroeste 6 Este 0 966.6 1.7 97
2020-03-28 09:00:00 0.4 0 Calma 4 Noroeste 0 966.1 1.6 99
2020-03-28 08:00:00 -0.4 2 Oeste 4 Sudeste 0 965.5 1.3 96
2020-03-28 07:00:00 -0.3 3 Sudeste 5 Sudeste 0 964.9 1.1 98
2020-03-28 06:00:00 -0.6 2 Sudeste 3 Sudeste 0 964.5 0.7 97
2020-03-28 05:00:00 -0.5 3 Sudeste 6 Sur 0 964.2 0.3 95
2020-03-28 04:00:00 -0.2 3 Sur 7 Sudeste 0 963.8 0.2 94
2020-03-28 03:00:00 0.4 4 Sudeste 5 Sudeste 0 963.8 0.4 94
2020-03-28 02:00:00 0.8 3 Sudoeste 7 Sudeste 0 963.9 0.7 96
2020-03-28 01:00:00 1.6 3 Sur 4 Sur 0 963.6 0.9 92
2020-03-28 00:00:00 2.5 3 Sudeste 4 Sur 0 963.4 1.4 92
2020-03-27 23:00:00 3.8 0 Calma 4 Sudeste 0 963.2 2 88
2020-03-27 22:00:00 5.1 3 Este 10 Nordeste 0 962.7 2.1 86
2020-03-27 21:00:00 6.2 4 Nordeste 13 Este 0 962 2 84
2020-03-27 20:00:00 7.6 7 Nordeste 19 Este 0 961.2 1.7 77
2020-03-27 19:00:00 9.6 6 Nordeste 26 Nordeste 0 960.6 1.1 67
2020-03-27 18:00:00 11.2 10 Nordeste 24 Nordeste 0 960 0.4 58
2020-03-27 17:00:00 12.5 9 Nordeste 30 Este 0 959.5 -0.5 55
2020-03-27 16:00:00 14.3 6 Norte 29 Este 0 959.5 -0.9 50
2020-03-27 15:00:00 14.4 12 Noroeste 30 Noroeste 0 959.6 -1.6 45
2020-03-27 14:00:00 14.5 8 Norte 21 Norte 0 960 -1.4 40
2020-03-27 13:00:00 13.3 5 Sur 22 Nordeste 0 960.4 -0.8 31
2020-03-27 12:00:00 11.4 10 Este 23 Nordeste 0 961.2 0.3 40
2020-03-27 11:00:00 10.1 5 Sudeste 15 Nordeste 0 961.4 0.8 51
2020-03-27 10:00:00 7.6 6 Nordeste 18 Este 0 961.2 1.4 58
2020-03-27 09:00:00 4.7 3 Norte 9 Nordeste 0 960.9 1.2 72
2020-03-27 08:00:00 0.9 4 Norte 20 Sudeste 0 960.6 0.5 91
2020-03-27 07:00:00 0.8 5 Sur 13 Oeste 0 959.8 -0.5 90
2020-03-27 06:00:00 0.9 5 Oeste 12 Oeste 0 959.7 -0.4 93
2020-03-27 05:00:00 2.4 6 Este 15 Este 0 960.1 -0.3 92
2020-03-27 04:00:00 3.1 6 Este 26 Nordeste 0 960.3 -0.4 92
2020-03-27 03:00:00 3.6 15 Nordeste 23 Nordeste 0 960.1 -0.9 92
2020-03-27 02:00:00 2.9 9 Nordeste 17 Nordeste 0 960.4 -0.8 96
2020-03-27 01:00:00 1.5 3 Sudoeste 8 Sudoeste 0 960.7 -0.8 93
2020-03-27 00:00:00 2.5 2 Sur 4 Sur 0 961 -0.5 88
2020-03-26 23:00:00 4.2 3 Oeste 8 Norte 0 961.2 0 85
2020-03-26 22:00:00 4.9 2 Nordeste 15 Nordeste 0 961.5 0.3 84
2020-03-26 21:00:00 5.5 4 Norte 21 Norte 0 961.5 0.7 81
2020-03-26 20:00:00 6.4 9 Nordeste 22 Nordeste 0 961.2 0.5 77
2020-03-26 19:00:00 8.2 6 Nordeste 28 Nordeste 0 961.2 0.2 70
2020-03-26 18:00:00 10.2 10 Nordeste 28 Este 0 960.8 -0.6 63
2020-03-26 17:00:00 12.1 10 Nordeste 27 Nordeste 0 960.7 -1.3 58
2020-03-26 16:00:00 13.2 11 Nordeste 28 Nordeste 0 961 -1.4 54
2020-03-26 15:00:00 13.4 8 Nordeste 25 Nordeste 0 961.4 -1.4 49
2020-03-26 14:00:00 12.9 12 Nordeste 25 Este 0 962 -1.1 52
2020-03-26 13:00:00 12.3 10 Nordeste 26 Nordeste 0 962.4 -0.9 58
2020-03-26 12:00:00 11.2 7 Nordeste 27 Nordeste 0 962.8 -0.5 60
2020-03-26 11:00:00 7.9 4 Nordeste 10 Noroeste 0 963.1 -0.6 83
2020-03-26 10:00:00 3.8 4 Noroeste 8 Noroeste 0 963.3 0.2 100
2020-03-26 09:00:00 1.2 3 Sudeste 4 Este 0 963.3 0.6 100
2020-03-26 08:00:00 0 3 Sudeste 4 Sur 0 963.7 0.7 100
2020-03-26 07:00:00 -0.5 3 Oeste 5 Oeste 0 963.1 -0.1 97
2020-03-26 06:00:00 -0.5 4 Oeste 5 Oeste 0 962.7 -1.1 98
2020-03-26 05:00:00 0.1 0 Calma 6 Oeste 0 963 -1.1 97
2020-03-26 04:00:00 1.1 3 Sudeste 8 Sudeste 0 963.2 -1 97
2020-03-26 03:00:00 2.4 2 Sudeste 4 Sur 0 963.8 -0.4 99
2020-03-26 02:00:00 2.2 2 Sur 4 Sur 0 964.1 -0.3 98
2020-03-26 01:00:00 2.4 3 Sur 5 Sur 0 964.2 -0.3 93
2020-03-26 00:00:00 3.4 2 Sur 3 Sur 0 964.2 -0.1 91
2020-03-25 23:00:00 4.9 2 Sur 5 Sudeste 0 964.4 0.4 87
2020-03-25 22:00:00 6.9 2 Sudeste 7 Sudeste 0 964.5 0.7 83
2020-03-25 21:00:00 9.3 3 Nordeste 15 Este 0 964.3 1.3 77
2020-03-25 20:00:00 11.2 8 Nordeste 16 Nordeste 0 964 1.2 69
2020-03-25 19:00:00 13.5 7 Nordeste 23 Nordeste 0 963.8 1.1 60
2020-03-25 18:00:00 15.8 13 Nordeste 26 Nordeste 0 963 0 52
2020-03-25 17:00:00 18 10 Nordeste 27 Nordeste 0 962.8 -1 50
2020-03-25 16:00:00 19.7 7 Nordeste 23 Nordeste 0 962.7 -1.5 50
2020-03-25 15:00:00 20 5 Nordeste 18 Nordeste 0 963 -1.6 47
2020-03-25 14:00:00 18.6 6 Norte 15 Norte 0 963.8 -0.9 52
2020-03-25 13:00:00 16.2 7 Noroeste 14 Noroeste 0 964.2 -0.5 59
2020-03-25 12:00:00 11.7 4 Noroeste 8 Norte 0 964.6 -0.1 89
2020-03-25 11:00:00 8.2 3 Norte 7 Noroeste 0 964.7 0.2 99
2020-03-25 10:00:00 5.9 2 Oeste 5 Noroeste 0 964.7 0.5 100
2020-03-25 09:00:00 4.6 0 Calma 4 Sur 0 964.7 0.5 100
2020-03-25 08:00:00 4.3 0 Calma 3 Oeste 0 964.5 0.8 100
2020-03-25 07:00:00 4 0 Calma 3 Sudeste 0 964.2 0.2 100
2020-03-25 06:00:00 3.7 3 Noroeste 5 Noroeste 0 964.2 0.3 100
2020-03-25 05:00:00 4.5 3 Noroeste 10 Sudeste 0 963.7 -0.2 99
2020-03-25 04:00:00 4.7 3 Sudoeste 5 Este 0 964 -0.2 100
2020-03-25 03:00:00 4.6 2 Sudeste 10 Sudoeste 0 963.9 -0.4 97
2020-03-25 02:00:00 5.1 2 Sur 7 Sudeste 0 963.9 -0.3 95
2020-03-25 01:00:00 6 3 Sudeste 5 Sudeste 0 964.2 0.2 92
2020-03-25 00:00:00 6.6 3 Sur 4 Sur 0 964.3 0.5 91
2020-03-24 23:00:00 7.9 2 Sur 5 Sur 0 964.2 0.6 91
2020-03-24 22:00:00 9 3 Sur 5 Noroeste 0 964 0.7 90
2020-03-24 21:00:00 10.9 2 Noroeste 5 Norte 0 963.8 0.8 84
2020-03-24 20:00:00 13.1 0 Calma 16 Este 0 963.6 0.8 79
2020-03-24 19:00:00 15 6 Nordeste 21 Nordeste 0 963.3 0.4 71
2020-03-24 18:00:00 16.7 9 Nordeste 24 Nordeste 0 963 -0.6 61
2020-03-24 17:00:00 18.1 8 Nordeste 22 Nordeste 0 962.8 -1.3 60
2020-03-24 16:00:00 19.7 5 Nordeste 14 Este 0 962.9 -1.8 47
2020-03-24 15:00:00 19.5 7 Norte 17 Norte 0 963.6 -1.5 51
2020-03-24 14:00:00 18.4 6 Oeste 14 Oeste 0 964.1 -1.3 52
2020-03-24 13:00:00 16.8 4 Norte 10 Norte 0 964.7 -0.8 61
2020-03-24 12:00:00 13.2 4 Norte 7 Norte 0 965.1 -0.1 74
2020-03-24 11:00:00 7.6 2 Noroeste 5 Noroeste 0 965.4 0.3 99
2020-03-24 10:00:00 5.3 2 Noroeste 5 Oeste 0 965.5 0.8 100
2020-03-24 09:00:00 3.6 0 Calma 3 Sudeste 0 965.2 0.8 100
2020-03-24 08:00:00 2 0 Calma 4 Sudeste 0 965.1 0.8 99
2020-03-24 07:00:00 2.2 3 Sudoeste 4 Oeste 0 964.7 0.4 96
2020-03-24 06:00:00 2.7 3 Sudoeste 6 Sudoeste 0 964.4 0 97
2020-03-24 05:00:00 3.5 3 Sur 6 Sudeste 0 964.3 -0.3 95
2020-03-24 04:00:00 4.6 3 Sur 5 Sur 0 964.3 -0.4 98
2020-03-24 03:00:00 5.6 3 Sudeste 5 Sudeste 0 964.4 -0.2 100
2020-03-24 02:00:00 5.6 2 Sur 6 Sudeste 0 964.6 0.1 98
2020-03-24 01:00:00 5.9 2 Sur 5 Sudeste 0 964.7 0 95
2020-03-24 00:00:00 7.3 3 Este 6 Nordeste 0 964.6 0 94
2020-03-23 23:00:00 8.6 2 Nordeste 17 Nordeste 0 964.5 0.2 95
2020-03-23 22:00:00 9.2 8 Nordeste 23 Nordeste 0 964.7 0.6 96
2020-03-23 21:00:00 9.1 12 Nordeste 27 Nordeste 0 964.6 0.6 98
2020-03-23 20:00:00 9 8 Nordeste 21 Nordeste 0 964.3 0.1 98
2020-03-23 19:00:00 9 8 Nordeste 18 Nordeste 0 964.1 -0.3 98
2020-03-23 18:00:00 9.4 5 Nordeste 22 Este 0 964 -0.3 95
2020-03-23 17:00:00 9.3 8 Nordeste 24 Nordeste 0 964.2 -0.7 95
2020-03-23 16:00:00 11 7 Nordeste 27 Nordeste 0 964.4 -0.8 87
2020-03-23 15:00:00 13.9 6 Norte 22 Nordeste 0 964.3 -1.3 74
2020-03-23 14:00:00 13.7 8 Nordeste 21 Nordeste 0 964.9 -1 74
2020-03-23 13:00:00 13.8 7 Nordeste 17 Nordeste 0 965.2 -0.6 68
2020-03-23 12:00:00 12.5 10 Nordeste 22 Este 0 965.6 0.2 78
2020-03-23 11:00:00 11.4 6 Nordeste 23 Nordeste 0 965.9 1 86
2020-03-23 10:00:00 10.2 9 Nordeste 19 Nordeste 0 965.8 1.5 90
2020-03-23 09:00:00 9.1 9 Nordeste 17 Nordeste 0 965.4 1.4 96
2020-03-23 08:00:00 8.1 3 Nordeste 14 Este 0 964.9 1.2 95
2020-03-23 07:00:00 8.6 8 Nordeste 15 Nordeste 0 964.3 0.8 95
2020-03-23 06:00:00 8.6 7 Nordeste 14 Nordeste 0 964 0.3 96
2020-03-23 05:00:00 8.1 3 Nordeste 10 Nordeste 0 963.7 -0.1 97
2020-03-23 04:00:00 8.7 6 Nordeste 13 Nordeste 0 963.5 -0.5 94
2020-03-23 03:00:00 9.1 6 Nordeste 17 Nordeste 0 963.7 -0.4 94
2020-03-23 02:00:00 9.2 8 Nordeste 17 Nordeste 0 963.8 -0.1 94
2020-03-23 01:00:00 9.4 8 Este 17 Nordeste 0 964 0.3 93
2020-03-23 00:00:00 9.4 4 Nordeste 17 Nordeste 0 964.1 0.8 96
2020-03-22 23:00:00 9.4 3 Norte 14 Nordeste 0 963.9 1.4 94
2020-03-22 22:00:00 9.9 5 Nordeste 17 Nordeste 0 963.7 1.3 92
2020-03-22 21:00:00 10 5 Nordeste 14 Este 0 963.3 1.5 90
2020-03-22 20:00:00 10.1 4 Nordeste 27 Nordeste 0 962.5 1 89
2020-03-22 19:00:00 10.6 11 Nordeste 27 Nordeste 0 962.4 1 88
2020-03-22 18:00:00 11.8 11 Nordeste 24 Nordeste 0 961.8 0.2 83
2020-03-22 17:00:00 12.8 6 Nordeste 21 Nordeste 0 961.5 -0.2 81
2020-03-22 16:00:00 13.2 4 Nordeste 21 Nordeste 0 961.4 -0.5 81
2020-03-22 15:00:00 13.1 5 Norte 15 Nordeste 0 961.6 -0.5 81
2020-03-22 14:00:00 13.4 5 Norte 19 Nordeste 0 961.7 -0.1 79
2020-03-22 13:00:00 12.9 5 Nordeste 14 Nordeste 0 961.9 0.1 79
2020-03-22 12:00:00 11.5 7 Nordeste 15 Este 0 962.1 0.6 82
2020-03-22 11:00:00 10.8 7 Este 13 Nordeste 0 961.8 0.7 85
2020-03-22 10:00:00 9.8 5 Nordeste 13 Nordeste 0 961.8 1.3 92
2020-03-22 09:00:00 9.1 5 Nordeste 10 Este 0 961.5 1.3 94
2020-03-22 08:00:00 8.7 4 Nordeste 11 Nordeste 0 961.1 1.2 95
2020-03-22 07:00:00 8.6 5 Nordeste 12 Nordeste 0 960.5 0.6 96
2020-03-22 06:00:00 8.7 3 Nordeste 12 Nordeste 0 960.2 0.3 98
2020-03-22 05:00:00 8.9 2 Nordeste 10 Este 0 959.9 0.1 98
2020-03-22 04:00:00 9 3 Nordeste 10 Nordeste 0 959.9 0 97
2020-03-22 03:00:00 8.9 3 Nordeste 13 Este 0 959.9 0.1 97
2020-03-22 02:00:00 9 3 Norte 9 Nordeste 0 959.8 0.1 96
2020-03-22 01:00:00 9.4 4 Norte 10 Nordeste 0 959.9 0.4 94
2020-03-22 00:00:00 9.8 3 Nordeste 5 Este 0 959.8 0.5 93
2020-03-21 23:00:00 10.2 2 Nordeste 10 Este 0 959.7 1.2 94
2020-03-21 22:00:00 10.4 5 Este 14 Nordeste 0 959.5 2.1 94
2020-03-21 21:00:00 11 6 Nordeste 18 Nordeste 0 959.3 2.4 91
2020-03-21 20:00:00 12.3 5 Nordeste 20 Este 0 958.5 1.8 90
2020-03-21 19:00:00 13.4 11 Este 20 Nordeste 0.4 957.4 0.5 91
2020-03-21 18:00:00 15 13 Este 21 Este 0.2 956.9 -0.4 81
2020-03-21 17:00:00 17.9 4 Nordeste 12 Norte 0 956.7 -1.2 55
2020-03-21 16:00:00 17.7 4 Norte 12 Norte 0 956.9 -1.2 60
2020-03-21 15:00:00 18.1 6 Sudoeste 16 Sudoeste 0 957.3 -1 52
2020-03-21 14:00:00 17.1 3 Sudoeste 14 Oeste 0 957.9 -0.4 56
2020-03-21 13:00:00 16.3 3 Sur 10 Sudoeste 0 958.1 -0.3 68
2020-03-21 12:00:00 14.7 4 Sudoeste 7 Oeste 0 958.3 0 81
2020-03-21 11:00:00 12.3 3 Norte 8 Noroeste 0 958.3 0.1 90
2020-03-21 10:00:00 9.5 2 Oeste 5 Este 0 958.4 0.6 99
2020-03-21 09:00:00 8.5 3 Nordeste 7 Sur 0 958.3 0.5 100
2020-03-21 08:00:00 7.6 2 Norte 5 Sudeste 0 958.2 0.3 100
2020-03-21 07:00:00 7.3 0 Calma 4 Noroeste 0 957.8 -0.5 99
2020-03-21 06:00:00 7.7 3 Sur 4 Sudoeste 0 957.8 -1 98
2020-03-21 05:00:00 8.6 2 Sur 4 Sur 0 957.9 -1.4 96
2020-03-21 04:00:00 9.1 3 Sudoeste 5 Sudoeste 0 958.3 -1.2 99
2020-03-21 03:00:00 9 0 Calma 4 Este 0 958.8 -1.3 99
2020-03-21 02:00:00 8.7 2 Oeste 4 Nordeste 0 959.3 -1.1 99
2020-03-21 01:00:00 8.9 3 Norte 8 Sudeste 0 959.5 -1.1 99
2020-03-21 00:00:00 9.8 2 Este 4 Nordeste 0 960.1 -0.4 97
2020-03-20 23:00:00 10.9 0 Calma 5 Sudeste 0 960.4 -0.1 96
2020-03-20 22:00:00 11.1 2 Sudeste 3 Nordeste 0 960.6 0.6 97
2020-03-20 21:00:00 11.6 2 Sur 4 Este 0.2 960.5 0.4 97
2020-03-20 20:00:00 11.6 2 Nordeste 5 Nordeste 0 960.5 0.4 97
2020-03-20 19:00:00 12.2 0 Calma 5 Oeste 0.2 960 0.2 93
2020-03-20 18:00:00 12.2 3 Sudoeste 22 Sur 1 960.1 -0.3 94
2020-03-20 17:00:00 12.1 6 Sur 37 Sudeste 8.2 960.1 -0.8 89
2020-03-20 16:00:00 16.4 4 Norte 10 Noroeste 0 959.8 -1.4 74
2020-03-20 15:00:00 15.5 4 Nordeste 11 Noroeste 0 960.4 -1.1 78
2020-03-20 14:00:00 14.6 2 Norte 6 Este 0 960.9 -0.9 87
2020-03-20 13:00:00 13.6 3 Nordeste 6 Este 0 961.2 -0.6 85
2020-03-20 12:00:00 12.6 3 Norte 5 Nordeste 0.2 961.5 -0.1 92
2020-03-20 11:00:00 11.4 2 Norte 5 Este 0 961.8 0.3 98
2020-03-20 10:00:00 10.3 3 Nordeste 5 Nordeste 0.2 961.8 0.7 100
2020-03-20 09:00:00 10.2 0 Calma 3 Este 0.2 961.6 0.5 99
2020-03-20 08:00:00 9.6 2 Norte 11 Sudoeste 0.2 961.5 0.4 100
2020-03-20 07:00:00 9.5 2 Este 4 Sudoeste 0 961.1 -0.3 99
2020-03-20 06:00:00 9.6 0 Calma 4 Oeste 0 961.1 -0.7 98
2020-03-20 05:00:00 9.8 2 Sur 4 Este 0 961.1 -1.3 98
2020-03-20 04:00:00 10.2 2 Oeste 10 Este 0 961.4 -1.4 97
2020-03-20 03:00:00 10.5 5 Este 9 Sudeste 0 961.8 -1.2 98
2020-03-20 02:00:00 11.3 2 Sudeste 3 Sur 0 962.4 -0.8 96
2020-03-20 01:00:00 11.4 0 Calma 7 Oeste 0 962.8 -0.8 98
2020-03-20 00:00:00 11.2 2 Noroeste 5 Sudeste 0.2 963 -1.1 98
2020-03-19 23:00:00 11.6 2 Este 9 Sudeste 0.4 963.2 -0.9 97
2020-03-19 22:00:00 11.7 5 Sudeste 9 Sudeste 5 963.6 0.5 97
2020-03-19 21:00:00 12.1 4 Sudeste 8 Este 1.8 964.1 2.2 97
2020-03-19 20:00:00 12.4 2 Sur 14 Noroeste 3.6 964.1 1.8 95
2020-03-19 19:00:00 13.3 6 Sudeste 39 Nordeste 10.4 963.1 0.2 84
2020-03-19 18:00:00 21.2 2 Nordeste 10 Noroeste 0 961.9 -2 49
2020-03-19 17:00:00 21.8 5 Nordeste 13 Este 0 962.3 -2.6 48
2020-03-19 16:00:00 22.1 4 Norte 14 Sudoeste 0 962.9 -2.8 45
2020-03-19 15:00:00 21.8 7 Oeste 18 Sudoeste 0 963.9 -2.7 46
2020-03-19 14:00:00 20.9 9 Sudoeste 22 Sudoeste 0 964.9 -2.2 45
2020-03-19 13:00:00 19.5 8 Sudoeste 17 Sudoeste 0 965.7 -1.5 54
2020-03-19 12:00:00 14.5 3 Noroeste 5 Noroeste 0 966.6 -0.5 78
2020-03-19 11:00:00 9.6 2 Noroeste 6 Noroeste 0 967.1 0.1 96
2020-03-19 10:00:00 7.1 2 Este 4 Sudeste 0 967.2 0.2 100
2020-03-19 09:00:00 5.3 2 Sudeste 3 Sudeste 0 967.1 -0.3 99
2020-03-19 08:00:00 4.5 0 Calma 3 Oeste 0 967 -0.6 97
2020-03-19 07:00:00 4.9 0 Calma 3 Sur 0 967 -1 98
2020-03-19 06:00:00 5.2 0 Calma 4 Sudeste 0 967.4 -1.2 96
2020-03-19 05:00:00 6 0 Calma 5 Sudeste 0 967.6 -1.6 98
2020-03-19 04:00:00 6.6 0 Calma 6 Oeste 0 968 -1.4 98
2020-03-19 03:00:00 7.1 0 Calma 5 Sudeste 0 968.6 -1.2 99
2020-03-19 02:00:00 7.8 2 Sur 5 Sudoeste 0 969.2 -0.8 99
2020-03-19 01:00:00 7.7 2 Oeste 5 Sudeste 0 969.4 -0.7 95
2020-03-19 00:00:00 8.8 3 Este 7 Este 0 969.8 -0.1 98
2020-03-18 23:00:00 9.3 3 Nordeste 5 Nordeste 0 970 0.4 92
2020-03-18 22:00:00 10.5 3 Oeste 4 Oeste 0 970.1 0.6 86
2020-03-18 21:00:00 12.1 2 Noroeste 4 Noroeste 0 969.9 0.4 77
2020-03-18 20:00:00 14.4 2 Este 13 Este 0 969.6 0.1 68
2020-03-18 19:00:00 16.1 6 Nordeste 23 Nordeste 0 969.5 -0.4 62
2020-03-18 18:00:00 18.6 6 Nordeste 19 Nordeste 0 969.5 -1.2 62
2020-03-18 17:00:00 20.4 10 Nordeste 22 Nordeste 0 969.5 -2.3 54
2020-03-18 16:00:00 21.1 7 Nordeste 14 Nordeste 0 969.9 -2.7 47
2020-03-18 15:00:00 19.4 5 Norte 13 Nordeste 0 970.7 -2.7 55
2020-03-18 14:00:00 16.8 4 Norte 11 Norte 0 971.8 -2.3 66
2020-03-18 13:00:00 14.4 5 Norte 10 Noroeste 0 972.6 -1.5 75
2020-03-18 12:00:00 10.7 4 Este 7 Nordeste 0 973.4 -0.5 85
2020-03-18 11:00:00 6.5 3 Norte 6 Norte 0 974.1 0.1 99
2020-03-18 10:00:00 4.7 3 Noroeste 5 Oeste 0 974.1 0.2 99
2020-03-18 09:00:00 3.7 0 Calma 8 Oeste 0 973.9 0.3 98
2020-03-18 08:00:00 4.1 0 Calma 7 Sur 0 974 0.5 99
2020-03-18 07:00:00 4.3 3 Sur 6 Sudoeste 0 973.9 0.1 99
2020-03-18 06:00:00 4.3 3 Sudoeste 6 Oeste 0 973.6 -0.6 99
2020-03-18 05:00:00 5 0 Calma 7 Sur 0 973.5 -0.9 100
2020-03-18 04:00:00 5.8 2 Sur 4 Sudoeste 0 973.8 -0.8 99
2020-03-18 03:00:00 6.1 2 Sudoeste 5 Sudeste 0 974.2 -0.6 99
2020-03-18 02:00:00 6.7 2 Este 5 Este 0 974.4 -0.6 100
2020-03-18 01:00:00 6.1 2 Sudeste 4 Sur 0 974.6 -0.2 99
2020-03-18 00:00:00 5.9 3 Sur 6 Sudeste 0 974.8 0.3 94
2020-03-17 23:00:00 7.3 2 Sudeste 4 Oeste 0 975 0.9 91
2020-03-17 22:00:00 8.9 0 Calma 6 Nordeste 0 974.8 1.3 91
2020-03-17 21:00:00 9.1 2 Nordeste 11 Este 0 974.5 0.9 93
2020-03-17 20:00:00 9 4 Nordeste 13 Norte 0 974.1 0.6 92
2020-03-17 19:00:00 10.3 7 Nordeste 24 Nordeste 0 973.5 0.3 87
2020-03-17 18:00:00 11.2 7 Nordeste 32 Nordeste 0 973.6 0.1 83
2020-03-17 17:00:00 12 13 Nordeste 32 Este 0 973.5 -0.3 79
2020-03-17 16:00:00 13.9 7 Nordeste 26 Nordeste 0 973.2 -1 72
2020-03-17 15:00:00 14.2 11 Nordeste 30 Este 0 973.5 -0.7 70
2020-03-17 14:00:00 14.6 10 Nordeste 33 Este 0 973.8 -0.6 68
2020-03-17 13:00:00 13.9 11 Nordeste 27 Nordeste 0 974.2 0 67
2020-03-17 12:00:00 12.9 10 Nordeste 26 Nordeste 0 974.2 -0.1 65
2020-03-17 11:00:00 11.4 8 Nordeste 24 Nordeste 0 974.4 0.8 70
2020-03-17 10:00:00 9.3 10 Nordeste 22 Nordeste 0 974.2 1.3 73
2020-03-17 09:00:00 6.8 4 Nordeste 14 Nordeste 0 974.3 1.7 85
2020-03-17 08:00:00 3.8 0 Calma 13 Este 0 973.6 1.3 89
2020-03-17 07:00:00 4.6 9 Nordeste 15 Nordeste 0 972.9 0.4 87
2020-03-17 06:00:00 4.8 4 Norte 24 Nordeste 0 972.6 -0.2 85
2020-03-17 05:00:00 5.1 9 Nordeste 25 Este 0 972.3 -0.4 84
2020-03-17 04:00:00 5.4 12 Nordeste 31 Nordeste 0 972.5 -0.4 81
2020-03-17 03:00:00 5.2 5 Nordeste 19 Nordeste 0 972.8 -0.1 84
2020-03-17 02:00:00 5 5 Norte 20 Este 0 972.7 0 86
2020-03-17 01:00:00 4.9 4 Norte 27 Este 0 972.9 0.1 86
2020-03-17 00:00:00 4.8 9 Nordeste 25 Nordeste 0 972.9 0.1 88
2020-03-16 23:00:00 4.5 4 Norte 14 Nordeste 0 972.7 0.7 93
2020-03-16 22:00:00 5.2 5 Nordeste 21 Nordeste 0 972.8 1.5 90
2020-03-16 21:00:00 5.6 7 Nordeste 27 Este 0 972.8 1.8 91
2020-03-16 20:00:00 6.3 8 Nordeste 24 Nordeste 0 972 1.8 84
2020-03-16 19:00:00 7.1 9 Nordeste 36 Nordeste 0 971.3 1.2 79
2020-03-16 18:00:00 7.7 16 Nordeste 43 Nordeste 0.2 971 1 80
2020-03-16 17:00:00 9.7 10 Nordeste 33 Este 0 970.2 -0.2 69
2020-03-16 16:00:00 9.6 8 Nordeste 35 Nordeste 0.2 970.1 0 82
2020-03-16 15:00:00 9.9 12 Nordeste 40 Nordeste 0.2 970 0.1 78
2020-03-16 14:00:00 8.5 18 Nordeste 42 Nordeste 0.4 970.4 0.7 80
2020-03-16 13:00:00 9.5 13 Nordeste 31 Este 0 970.1 0.9 73
2020-03-16 12:00:00 7.4 10 Nordeste 31 Noroeste 0 969.9 1.5 86
2020-03-16 11:00:00 6.6 8 Nordeste 30 Nordeste 2.4 969.7 2 96
2020-03-16 10:00:00 6.1 6 Norte 19 Este 0.8 969.2 2.3 94
2020-03-16 09:00:00 4.6 5 Norte 17 Norte 1.2 968.4 1.8 98
2020-03-16 08:00:00 4 3 Norte 14 Noroeste 0.2 967.7 1.5 98
2020-03-16 07:00:00 3.5 5 Norte 13 Noroeste 0.8 966.9 1 99
2020-03-16 06:00:00 3.5 5 Norte 12 Norte 0.8 966.6 0.9 100
2020-03-16 05:00:00 3 3 Noroeste 9 Este 0.2 966.2 0.8 98
2020-03-16 04:00:00 3 6 Nordeste 18 Nordeste 0.4 965.9 0.9 98
2020-03-16 03:00:00 2.6 0 Calma 6 Oeste 0.2 965.7 0.8 97
2020-03-16 02:00:00 3 0 Calma 6 Sudoeste 0.2 965.4 0.6 98
2020-03-16 01:00:00 2.6 5 Oeste 8 Oeste 0 965 0.7 99
2020-03-16 00:00:00 2.4 2 Sur 6 Sur 0.2 964.9 0.7 96
2020-03-15 23:00:00 2.8 2 Sur 5 Sudeste 0 964.8 1.1 97
2020-03-15 22:00:00 3.7 3 Oeste 7 Norte 0.8 964.3 1.1 97
2020-03-15 21:00:00 3.8 2 Nordeste 7 Este 2.8 964.2 1.2 95
2020-03-15 20:00:00 4.5 2 Sudeste 5 Sudoeste 0 963.7 0.7 94
2020-03-15 19:00:00 4.9 4 Sur 9 Sudoeste 1.2 963.2 0.4 92
2020-03-15 18:00:00 5 3 Este 9 Noroeste 0.2 963 0.7 94
2020-03-15 17:00:00 4.7 5 Norte 18 Noroeste 1.4 963 0.7 95
2020-03-15 16:00:00 4.9 5 Noroeste 29 Noroeste 2.4 962.8 0.6 96
2020-03-15 15:00:00 6.1 9 Noroeste 19 Noroeste 2.8 962.3 1.2 93
2020-03-15 14:00:00 6.8 7 Noroeste 27 Norte 1 962.3 0.4 95
2020-03-15 13:00:00 8.1 7 Noroeste 37 Oeste 1.6 962.2 -0.7 93
2020-03-15 12:00:00 12.8 14 Sudoeste 36 Sur 0 961.1 -2 64
2020-03-15 11:00:00 10.9 12 Sur 27 Sudoeste 0 961.9 -1.3 75
2020-03-15 10:00:00 7.4 9 Sur 21 Sur 0 962.9 -0.1 94
2020-03-15 09:00:00 5.4 7 Sur 15 Sudoeste 0 963.1 0.3 100
2020-03-15 08:00:00 0.4 2 Sudoeste 8 Sur 0 963.2 0.4 100
2020-03-15 07:00:00 0.3 0 Calma 8 Sudeste 0 963 -0.1 97
2020-03-15 06:00:00 1.4 3 Sudoeste 6 Noroeste 0 962.8 -0.8 98
2020-03-15 05:00:00 2.1 3 Sudeste 9 Sudeste 0 962.8 -1.6 100
2020-03-15 04:00:00 1.6 0 Calma 5 Sur 0 963.1 -2.1 99
2020-03-15 03:00:00 2 2 Sur 4 Sur 0 963.6 -2.4 93
2020-03-15 02:00:00 2.6 0 Calma 6 Sur 0 964.4 -1.9 95
2020-03-15 01:00:00 2.9 4 Sudeste 7 Sudeste 0 965.2 -1.5 95
2020-03-15 00:00:00 4 3 Sudeste 4 Sudeste 0 966 -0.9 93
2020-03-14 23:00:00 5.4 3 Sur 5 Sur 0 966.3 -0.6 89
2020-03-14 22:00:00 7 2 Sudoeste 6 Noroeste 0 966.7 -0.1 86
2020-03-14 21:00:00 9.1 4 Noroeste 8 Noroeste 0 966.9 0 81
2020-03-14 20:00:00 11.5 4 Nordeste 9 Nordeste 0 966.9 -0.3 76
2020-03-14 19:00:00 14.1 5 Nordeste 12 Nordeste 0 966.8 -0.9 63
2020-03-14 18:00:00 16.3 6 Nordeste 15 Norte 0 966.9 -1.3 54
2020-03-14 17:00:00 17.6 5 Norte 15 Norte 0 967.2 -2 45
2020-03-14 16:00:00 17.3 5 Noroeste 14 Noroeste 0 967.7 -2.3 50
2020-03-14 15:00:00 16.6 4 Noroeste 12 Noroeste 0 968.2 -2.5 54
2020-03-14 14:00:00 15 5 Norte 13 Noroeste 0 969.2 -2.4 58
2020-03-14 13:00:00 13.6 4 Noroeste 13 Nordeste 0 970 -1.8 59
2020-03-14 12:00:00 12.2 6 Este 17 Este 0 970.7 -0.8 64
2020-03-14 11:00:00 10.4 6 Nordeste 14 Este 0 971.6 0.4 70
2020-03-14 10:00:00 8.7 4 Sudeste 8 Sudeste 0 971.8 0.9 75
2020-03-14 09:00:00 6.9 0 Calma 4 Este 0 971.5 0.8 83
2020-03-14 08:00:00 5.5 2 Oeste 6 Oeste 0 971.2 0.6 89
2020-03-14 07:00:00 6.4 0 Calma 9 Nordeste 0 970.9 0.1 88
2020-03-14 06:00:00 6.5 2 Nordeste 8 Este 0 970.7 -0.4 85
2020-03-14 05:00:00 6.7 5 Este 10 Este 0 970.6 -0.7 84
2020-03-14 04:00:00 6.8 7 Este 13 Nordeste 0 970.8 -0.9 84
2020-03-14 03:00:00 7 6 Este 12 Este 0 971.1 -0.8 85
2020-03-14 02:00:00 7.4 8 Este 13 Este 0 971.3 -0.4 83
2020-03-14 01:00:00 7.4 7 Nordeste 17 Nordeste 0 971.7 0.5 85
2020-03-14 00:00:00 7.4 6 Nordeste 19 Nordeste 0 971.9 0.6 86
2020-03-13 23:00:00 7.4 5 Nordeste 15 Nordeste 0 971.7 1.3 86
2020-03-13 22:00:00 7.6 0 Calma 7 Nordeste 0 971.2 0.9 87
2020-03-13 21:00:00 7.9 3 Norte 11 Norte 0 971.3 1.8 86
2020-03-13 20:00:00 8.6 2 Norte 14 Nordeste 0 970.4 0.9 85
2020-03-13 19:00:00 9.6 3 Este 14 Norte 0 970.3 0.1 79
2020-03-13 18:00:00 10.6 4 Nordeste 23 Este 0 969.5 -0.9 75
2020-03-13 17:00:00 11.7 9 Nordeste 27 Nordeste 0 969.5 -1.3 71
2020-03-13 16:00:00 12.2 10 Nordeste 22 Nordeste 0 970.2 -1.2 70
2020-03-13 15:00:00 11.6 9 Nordeste 23 Este 0 970.4 -1.1 72
2020-03-13 14:00:00 11.5 14 Este 27 Este 0 970.8 -0.5 69
2020-03-13 13:00:00 10.8 12 Nordeste 25 Nordeste 0 971.4 0.4 73
2020-03-13 12:00:00 9.3 9 Nordeste 22 Este 0 971.5 0.9 82
2020-03-13 11:00:00 8.9 8 Nordeste 23 Nordeste 0 971.3 0.9 84
2020-03-13 10:00:00 7.9 8 Nordeste 24 Nordeste 0 971 1 89
2020-03-13 09:00:00 7.1 9 Nordeste 26 Este 0 970.6 0.4 92
2020-03-13 08:00:00 6.7 8 Nordeste 22 Nordeste 0 970.4 0.1 93
2020-03-13 07:00:00 6.7 8 Nordeste 23 Nordeste 0 970 -0.8 93
2020-03-13 06:00:00 6.7 10 Nordeste 27 Este 0 970.2 -1 92
2020-03-13 05:00:00 6.6 11 Nordeste 24 Este 0 970.3 -1.1 93
2020-03-13 04:00:00 6.6 6 Nordeste 22 Este 0 970.8 -0.9 95
2020-03-13 03:00:00 6.9 11 Nordeste 26 Este 0 971.2 -0.6 92
2020-03-13 02:00:00 6.8 8 Nordeste 26 Este 0 971.4 -0.3 91
2020-03-13 01:00:00 6.7 8 Nordeste 29 Nordeste 0 971.7 0 92
2020-03-13 00:00:00 6.7 8 Nordeste 25 Nordeste 0 971.8 0.2 93
2020-03-12 23:00:00 6.6 8 Nordeste 22 Este 0 971.7 0.3 93
2020-03-12 22:00:00 6.5 9 Nordeste 28 Nordeste 0 971.7 0.5 95
2020-03-12 21:00:00 7 8 Nordeste 23 Nordeste 0 971.6 0.7 94
2020-03-12 20:00:00 7.1 7 Nordeste 33 Este 0 971.4 1 93
2020-03-12 19:00:00 7.5 10 Nordeste 33 Nordeste 0 971.2 0.9 89
2020-03-12 18:00:00 8.3 7 Nordeste 27 Nordeste 0 970.9 0.4 87
2020-03-12 17:00:00 9.8 13 Nordeste 32 Nordeste 0 970.4 -0.6 86
2020-03-12 16:00:00 10.7 10 Nordeste 28 Nordeste 0 970.3 -1 85
2020-03-12 15:00:00 10.9 16 Nordeste 31 Nordeste 0 970.5 -0.9 83
2020-03-12 14:00:00 12.6 10 Nordeste 22 Este 0 971 -0.3 74
2020-03-12 13:00:00 12.6 10 Nordeste 20 Este 0 971.3 0.1 72
2020-03-12 12:00:00 12.2 11 Nordeste 19 Nordeste 0 971.4 0.6 75
2020-03-12 11:00:00 11.2 5 Nordeste 13 Este 0 971.3 1 85
2020-03-12 10:00:00 9.8 4 Noroeste 8 Noroeste 0 971.2 1.2 93
2020-03-12 09:00:00 8.5 4 Noroeste 9 Noroeste 0 970.8 0.8 98
2020-03-12 08:00:00 8 2 Sur 4 Sudeste 0 970.3 0.3 98
2020-03-12 07:00:00 7.8 2 Noroeste 10 Noroeste 0 970 -0.4 98
2020-03-12 06:00:00 8 0 Calma 4 Noroeste 0 970 -0.7 96
2020-03-12 05:00:00 8.3 2 Sudeste 4 Sudeste 0 970 -0.7 94
2020-03-12 04:00:00 9.7 0 Calma 3 Sudeste 0 970.4 -0.5 93
2020-03-12 03:00:00 10.6 0 Calma 2 Nordeste 0 970.7 -0.3 92
2020-03-12 02:00:00 11 0 Calma 5 Noroeste 0 970.7 -0.3 92
2020-03-12 01:00:00 11.4 2 Sudeste 4 Este 0 970.9 0.1 93
2020-03-12 00:00:00 11.7 0 Calma 8 Norte 0 971 0.3 89
2020-03-11 23:00:00 11.8 4 Norte 11 Norte 0 971 0.4 88
2020-03-11 22:00:00 12.3 0 Calma 7 Norte 0 970.8 0.7 87
2020-03-11 21:00:00 12.9 3 Noroeste 10 Norte 0 970.7 1.4 86
2020-03-11 20:00:00 13.6 4 Norte 15 Norte 0 970.6 1.8 83
2020-03-11 19:00:00 16.4 9 Noroeste 21 Noroeste 0 970.1 1.2 72
2020-03-11 18:00:00 19.2 10 Noroeste 23 Noroeste 0 969.3 -0.2 61
2020-03-11 17:00:00 22.3 8 Oeste 22 Oeste 0 968.8 -1.4 48
2020-03-11 16:00:00 22.2 9 Oeste 19 Oeste 0 968.9 -2.1 47
2020-03-11 15:00:00 20.6 6 Noroeste 13 Oeste 0 969.5 -2 56
2020-03-11 14:00:00 19 5 Nordeste 11 Nordeste 0 970.2 -1.6 65
2020-03-11 13:00:00 16.4 5 Norte 12 Norte 0 971 -1 75
2020-03-11 12:00:00 13.6 4 Norte 8 Norte 0 971.5 -0.5 82
2020-03-11 11:00:00 9.6 4 Noroeste 6 Noroeste 0 971.8 -0.2 96
2020-03-11 10:00:00 6.9 4 Sudeste 7 Sur 0 972 0 100
2020-03-11 09:00:00 6.1 2 Sur 6 Oeste 0 972 -0.1 100
2020-03-11 08:00:00 6 2 Sudoeste 5 Sur 0 972 -0.2 98
2020-03-11 07:00:00 7.1 2 Sur 5 Sur 0 972 -0.6 99
2020-03-11 06:00:00 7.6 3 Sur 7 Sudeste 0 972.1 -1.1 100
2020-03-11 05:00:00 8 3 Sudeste 5 Sudeste 0 972.2 -1.3 99
2020-03-11 04:00:00 8.4 3 Sudoeste 6 Sudeste 0 972.6 -1.1 100
2020-03-11 03:00:00 7.8 4 Sudeste 6 Sur 0 973.2 -0.7 100
2020-03-11 02:00:00 6.9 0 Calma 6 Sudoeste 0 973.5 -0.7 98
2020-03-11 01:00:00 7 0 Calma 6 Sudeste 0 973.7 -0.5 94
2020-03-11 00:00:00 7.9 3 Sur 5 Sudeste 0 973.9 -0.1 91
2020-03-10 23:00:00 9.2 2 Sudeste 8 Sudeste 0 974.2 0.8 93
2020-03-10 22:00:00 9.3 0 Calma 5 Sudoeste 0 974.2 1.1 92
2020-03-10 21:00:00 11 3 Sur 6 Noroeste 0 974 1.6 84
2020-03-10 20:00:00 13.2 2 Noroeste 19 Noroeste 0 973.4 0.8 80
2020-03-10 19:00:00 16.3 7 Noroeste 21 Oeste 0 973.1 0.1 68
2020-03-10 18:00:00 18.9 13 Sudoeste 29 Oeste 0 972.4 -0.8 53
2020-03-10 17:00:00 19.6 15 Oeste 30 Oeste 0 972.6 -1 50
2020-03-10 16:00:00 20.1 13 Oeste 32 Oeste 0 973 -1.3 49
2020-03-10 15:00:00 19.7 17 Oeste 34 Oeste 0 973.2 -1.3 44
2020-03-10 14:00:00 19.3 14 Oeste 30 Sudoeste 0 973.6 -1 44
2020-03-10 13:00:00 17.4 11 Sudoeste 24 Oeste 0 974.3 -0.3 49
2020-03-10 12:00:00 15.2 10 Sudoeste 22 Sudoeste 0 974.5 0.4 43
2020-03-10 11:00:00 12.5 14 Oeste 23 Oeste 0 974.6 0.7 59
2020-03-10 10:00:00 7.1 2 Norte 9 Noroeste 0 974.6 1.2 94
2020-03-10 09:00:00 3.6 0 Calma 4 Sur 0 974.1 0.4 99
2020-03-10 08:00:00 2.3 2 Nordeste 7 Norte 0 973.9 -0.5 98
2020-03-10 07:00:00 2.9 3 Sudeste 5 Sudeste 0 973.4 -0.8 98
2020-03-10 06:00:00 3.3 0 Calma 6 Sudeste 0 973.7 -0.9 97
2020-03-10 05:00:00 3.5 3 Sudeste 5 Nordeste 0 974.4 -0.7 95
2020-03-10 04:00:00 4 0 Calma 5 Norte 0 974.2 -1.5 96
2020-03-10 03:00:00 4.5 0 Calma 4 Noroeste 0 974.6 -1.3 97
2020-03-10 02:00:00 5 0 Calma 5 Sur 0 975.1 -1.2 93
2020-03-10 01:00:00 6.2 0 Calma 9 Sudoeste 0 975.7 -0.4 92
2020-03-10 00:00:00 6.3 3 Sur 10 Sudoeste 0 975.9 -0.1 92
2020-03-09 23:00:00 7.1 0 Calma 4 Sur 0 976.3 0.7 88
2020-03-09 22:00:00 8.3 3 Sur 6 Sur 0 976.1 0.4 84
2020-03-09 21:00:00 10.2 2 Sur 10 Sudoeste 0 976 0.4 76
2020-03-09 20:00:00 11.6 5 Sudoeste 8 Sudoeste 0 975.6 0 70
2020-03-09 19:00:00 13.7 4 Oeste 13 Oeste 0 975.7 -0.2 58
2020-03-09 18:00:00 14.7 6 Oeste 15 Oeste 0 975.6 -1.1 52
2020-03-09 17:00:00 15.3 7 Oeste 18 Sudoeste 0 975.6 -1.7 50
2020-03-09 16:00:00 15.1 8 Oeste 23 Oeste 0 975.9 -2.1 52
2020-03-09 15:00:00 14.5 9 Oeste 19 Sudoeste 0 976.7 -1.7 52
2020-03-09 14:00:00 13.7 7 Sudoeste 21 Sudoeste 0 977.3 -1.1 56
2020-03-09 13:00:00 12.6 8 Oeste 19 Oeste 0 978 0.3 60
2020-03-09 12:00:00 11.1 6 Sudoeste 20 Oeste 0 978.4 1.5 69
2020-03-09 11:00:00 10.3 8 Sudoeste 18 Sudoeste 0 978.4 1.7 72
2020-03-09 10:00:00 7.9 6 Sur 15 Sur 0 977.7 1.5 85
2020-03-09 09:00:00 5.7 7 Sudoeste 12 Sur 0 976.9 0.9 95
2020-03-09 08:00:00 4 3 Sur 7 Sur 0 976.7 1.1 95
2020-03-09 07:00:00 4.2 3 Sur 6 Sudoeste 0 976.2 0.2 92
2020-03-09 06:00:00 6 3 Sur 13 Sudoeste 0 976 -0.2 90
2020-03-09 05:00:00 6.6 6 Sudoeste 10 Sudoeste 0 975.6 -0.5 91
2020-03-09 04:00:00 6.1 3 Sur 9 Sudoeste 0 976 -0.2 91
2020-03-09 03:00:00 6.5 3 Sur 5 Sur 0 976.2 0 92
2020-03-09 02:00:00 6.6 3 Sur 9 Sudoeste 0 976.1 0.2 93
2020-03-09 01:00:00 7.4 7 Sudoeste 15 Oeste 0 976.2 1.1 90
2020-03-09 00:00:00 8.6 10 Oeste 17 Oeste 0 976.2 1.1 85
2020-03-08 23:00:00 8.8 7 Sudoeste 18 Oeste 0 975.9 1.3 81
2020-03-08 22:00:00 8.8 6 Sudoeste 15 Oeste 0 975.1 1.5 82
2020-03-08 21:00:00 9.2 8 Oeste 17 Oeste 0 975.1 2.5 81
2020-03-08 20:00:00 10 4 Noroeste 16 Noroeste 0 974.6 2.5 76
2020-03-08 19:00:00 11.1 6 Oeste 26 Noroeste 0 973.6 2 74
2020-03-08 18:00:00 13.2 11 Noroeste 39 Oeste 0 972.6 0.2 71
2020-03-08 17:00:00 15 24 Oeste 41 Sudoeste 0 972.1 -0.1 57
2020-03-08 16:00:00 15.4 22 Oeste 42 Oeste 0 971.6 -0.8 52
2020-03-08 15:00:00 13.4 18 Oeste 41 Oeste 0 972.4 -0.1 73
2020-03-08 14:00:00 11.9 11 Sudoeste 35 Sudoeste 0 972.2 -0.2 78
2020-03-08 13:00:00 12.3 18 Sudoeste 35 Sudoeste 0 972.4 0.2 78
2020-03-08 12:00:00 11.3 15 Sudoeste 31 Sur 0 972.5 0.3 80
2020-03-08 11:00:00 9.7 12 Sudoeste 30 Sudoeste 0 972.4 0.6 83
2020-03-08 10:00:00 8.2 12 Sur 26 Sudeste 0 972.2 0.4 89
2020-03-08 09:00:00 7.3 10 Sur 28 Sudoeste 0.2 972.2 0.3 91
2020-03-08 08:00:00 7.3 11 Sudoeste 23 Sur 0 971.8 0 86
2020-03-08 07:00:00 7.1 8 Sur 24 Sur 0 971.8 -0.4 87
2020-03-08 06:00:00 7.1 10 Sur 32 Sur 0 971.9 -1.1 86
2020-03-08 05:00:00 7.5 14 Sudoeste 33 Sudoeste 0 971.8 -1 80
2020-03-08 04:00:00 7.2 9 Sur 25 Sudoeste 0 972.2 -1.1 79
2020-03-08 03:00:00 6.4 8 Sudoeste 17 Sudoeste 0 973 -0.5 84
2020-03-08 02:00:00 6.6 7 Sur 19 Sur 0 972.8 -1.1 83
2020-03-08 01:00:00 7.1 10 Sudoeste 22 Sudoeste 0 973.3 -0.4 82
2020-03-08 00:00:00 6.8 5 Sudoeste 14 Sur 0 973.5 -0.1 84
2020-03-07 23:00:00 6.7 3 Sudoeste 14 Sudoeste 0 973.9 0.3 86
2020-03-07 22:00:00 7.7 6 Sudoeste 13 Sudoeste 0 973.7 0.6 82
2020-03-07 21:00:00 8.4 9 Sudoeste 12 Sudoeste 0 973.6 0.7 82
2020-03-07 20:00:00 10.3 5 Oeste 12 Oeste 0 973.6 0.5 73
2020-03-07 19:00:00 13 4 Oeste 16 Noroeste 0 973.1 -0.5 61
2020-03-07 18:00:00 14.4 6 Oeste 24 Sudoeste 0 972.9 -1.2 54
2020-03-07 17:00:00 15.4 9 Sudoeste 21 Sudoeste 0 973.1 -1.8 50
2020-03-07 16:00:00 14.9 8 Sudoeste 23 Oeste 0 973.6 -1.8 48
2020-03-07 15:00:00 14.5 13 Sudoeste 23 Oeste 0 974.1 -1.8 51
2020-03-07 14:00:00 13.7 9 Sudoeste 25 Oeste 0 974.9 -1.1 53
2020-03-07 13:00:00 12.8 6 Oeste 17 Oeste 0 975.4 -0.7 54
2020-03-07 12:00:00 12.9 5 Sudoeste 13 Sudoeste 0 975.9 -0.2 54
2020-03-07 11:00:00 11 5 Oeste 10 Oeste 0 976 0.3 66
2020-03-07 10:00:00 9.8 5 Sur 9 Sudoeste 0 976.1 0.6 81
2020-03-07 09:00:00 7.5 2 Sur 6 Sudeste 0 976.1 1 96
2020-03-07 08:00:00 7 3 Sudoeste 6 Sur 0 975.7 0.9 97
2020-03-07 07:00:00 6.8 2 Sur 5 Sur 0 975.5 0.4 98
2020-03-07 06:00:00 6.8 2 Sur 7 Sudoeste 0 975.1 -0.4 95
2020-03-07 05:00:00 7.4 5 Oeste 11 Oeste 0 974.8 -0.8 96
2020-03-07 04:00:00 7.5 4 Sudoeste 8 Sudoeste 0 975.1 -0.6 97
2020-03-07 03:00:00 7.3 4 Sudoeste 8 Sudoeste 0 975.5 -0.3 97
2020-03-07 02:00:00 7.2 3 Sudoeste 11 Sudoeste 0.2 975.6 -0.2 97
2020-03-07 01:00:00 6.9 6 Sudoeste 12 Sudoeste 0 975.7 0.3 97
2020-03-07 00:00:00 7 5 Sudoeste 9 Sudoeste 0.2 975.8 0.8 95
2020-03-06 23:00:00 7.3 3 Sudoeste 5 Sudoeste 0 975.8 1.4 90
2020-03-06 22:00:00 7.4 2 Noroeste 12 Noroeste 0 975.4 1.4 88
2020-03-06 21:00:00 7.6 3 Oeste 6 Sudoeste 0 975 1.8 83
2020-03-06 20:00:00 7.5 2 Norte 17 Norte 0 974.4 1.4 82
2020-03-06 19:00:00 8.1 11 Noroeste 27 Noroeste 0 974 1.6 79
2020-03-06 18:00:00 9.5 8 Norte 28 Noroeste 0 973.2 0.9 57
2020-03-06 17:00:00 9.8 15 Noroeste 34 Noroeste 0 973 0.7 56
2020-03-06 16:00:00 9.8 16 Noroeste 31 Noroeste 0 972.4 0.1 62
2020-03-06 15:00:00 9.1 10 Noroeste 31 Noroeste 0 972.3 0.5 67
2020-03-06 14:00:00 8.6 7 Noroeste 30 Norte 0.4 972.3 1 86
2020-03-06 13:00:00 9 14 Noroeste 34 Norte 0 972.3 1.9 75
2020-03-06 12:00:00 8.7 12 Noroeste 30 Noroeste 0.2 971.8 2.6 73
2020-03-06 11:00:00 7.2 9 Noroeste 25 Noroeste 0 971.3 3.2 82
2020-03-06 10:00:00 5.8 6 Noroeste 25 Oeste 0.2 970.4 2.8 90
2020-03-06 09:00:00 4.6 5 Noroeste 29 Noroeste 0.8 969.2 2.7 95
2020-03-06 08:00:00 4.8 6 Noroeste 19 Norte 0.6 968.1 2.7 95
2020-03-06 07:00:00 4.7 3 Noroeste 20 Oeste 0 967.6 2.2 96
2020-03-06 06:00:00 4.8 7 Oeste 43 Oeste 0.8 966.5 1.6 94
2020-03-06 05:00:00 4.9 8 Oeste 25 Oeste 0.6 965.4 0.6 96
2020-03-06 04:00:00 5 12 Noroeste 28 Oeste 1.2 965.4 1.2 90
2020-03-06 03:00:00 5.7 11 Sudoeste 19 Oeste 0.2 964.9 1.1 94
2020-03-06 02:00:00 5.7 9 Oeste 32 Oeste 0.2 964.8 1.2 94
2020-03-06 01:00:00 6.6 12 Oeste 34 Oeste 2.2 964.2 0.6 95
2020-03-06 00:00:00 6.9 17 Oeste 36 Oeste 0.6 963.8 -0.2 92
2020-03-05 23:00:00 6.9 14 Sudoeste 27 Sudoeste 1.2 963.6 -0.9 95
2020-03-05 22:00:00 6.8 8 Sudoeste 18 Sudoeste 0.2 963.6 -0.8 93
2020-03-05 21:00:00 6.6 10 Sudoeste 23 Sudoeste 0 964 0.2 92
2020-03-05 20:00:00 7.9 7 Sudoeste 15 Oeste 0.2 964.5 0.8 89
2020-03-05 19:00:00 8.9 8 Oeste 21 Oeste 0 964.4 0.9 80
2020-03-05 18:00:00 10 11 Oeste 28 Oeste 0 963.8 0.7 73
2020-03-05 17:00:00 10.8 10 Oeste 27 Oeste 0 963.7 1 75
2020-03-05 16:00:00 10 9 Noroeste 45 Noroeste 0.2 963.5 1 84
2020-03-05 15:00:00 10.7 9 Noroeste 27 Norte 1.4 963.1 1.7 79
2020-03-05 14:00:00 11.5 9 Noroeste 20 Noroeste 0.4 962.7 2.7 77
2020-03-05 13:00:00 9.8 8 Noroeste 34 Noroeste 0 962.5 3.5 84
2020-03-05 12:00:00 9.3 6 Oeste 25 Oeste 0.6 961.4 2.8 94
2020-03-05 11:00:00 8.7 19 Oeste 40 Sudoeste 0.6 960 2.2 92
2020-03-05 10:00:00 8.7 18 Sudoeste 33 Sudoeste 0 959 1.8 90
2020-03-05 09:00:00 8.3 19 Sudoeste 33 Oeste 0 958.6 2 84
2020-03-05 08:00:00 8.4 17 Oeste 41 Oeste 0 957.8 1.5 86
2020-03-05 07:00:00 8.9 22 Oeste 40 Oeste 0 957.2 1 89
2020-03-05 06:00:00 8.7 20 Sudoeste 39 Oeste 1.4 956.6 0.7 92
2020-03-05 05:00:00 9.7 16 Oeste 33 Oeste 2.6 956.3 -0.8 97
2020-03-05 04:00:00 11.6 18 Oeste 40 Sudoeste 6.4 956.2 -2.7 97
2020-03-05 03:00:00 12.2 22 Sudoeste 44 Sudoeste 3 955.9 -4.1 95
2020-03-05 02:00:00 12.4 16 Sudoeste 35 Sudoeste 0.2 957.1 -4 94
2020-03-05 01:00:00 12.3 16 Sudoeste 34 Sudoeste 1.2 958.9 -3 97
2020-03-05 00:00:00 12.7 14 Sudoeste 40 Oeste 0.6 960 -2.6 96
2020-03-04 23:00:00 13.2 17 Sudoeste 34 Sudoeste 0.2 961.1 -2.1 94
2020-03-04 22:00:00 12.9 15 Sudoeste 34 Sur 0 961.9 -1.6 96
2020-03-04 21:00:00 12.8 17 Sudoeste 32 Sur 0.2 962.6 -1.5 96
2020-03-04 20:00:00 12.8 12 Sudoeste 26 Sudoeste 0 963.2 -1.1 96
2020-03-04 19:00:00 12.7 12 Sudoeste 27 Sur 0.2 963.5 -1.5 96
2020-03-04 18:00:00 13.2 16 Sudoeste 32 Sudoeste 0 964.1 -1.7 92
2020-03-04 17:00:00 15.4 17 Sudoeste 40 Sudoeste 0 964.3 -2.1 73
2020-03-04 16:00:00 15.7 23 Sudoeste 50 Oeste 0.2 965 -2.2 72
2020-03-04 15:00:00 14.4 17 Oeste 36 Sudoeste 0 965.8 -1.7 83
2020-03-04 14:00:00 13.7 14 Sudoeste 39 Sudoeste 0 966.4 -1.4 87
2020-03-04 13:00:00 14.7 14 Sudoeste 34 Oeste 0 967.2 -0.6 81
2020-03-04 12:00:00 14.1 11 Sudoeste 26 Sudoeste 0 967.5 0.4 89
2020-03-04 11:00:00 12.4 10 Sudoeste 21 Sudoeste 0.2 967.8 0.9 95
2020-03-04 10:00:00 12.1 9 Sudoeste 22 Sudoeste 0.2 967.8 1.2 95
2020-03-04 09:00:00 11.5 9 Sudoeste 19 Sudoeste 0 967.1 0.4 96
2020-03-04 08:00:00 11.5 9 Sudoeste 23 Sudoeste 0.6 966.9 0.8 96
2020-03-04 07:00:00 11.7 11 Sudoeste 27 Sudoeste 0 966.6 0.6 94
2020-03-04 06:00:00 11.9 13 Sudoeste 24 Sudoeste 0 966.7 0.3 95
2020-03-04 05:00:00 11.8 9 Sudoeste 23 Sudoeste 0.2 966.1 -0.4 98
2020-03-04 04:00:00 12.3 11 Sudoeste 30 Sudoeste 0 966 -0.3 95
2020-03-04 03:00:00 12.4 10 Sudoeste 27 Sudoeste 0 966.4 0 95
2020-03-04 02:00:00 12.4 17 Sudoeste 31 Sudoeste 0 966.5 0.4 96
2020-03-04 01:00:00 12.4 13 Sudoeste 26 Sudoeste 0 966.3 0.1 97
2020-03-04 00:00:00 12.1 11 Sudoeste 20 Sudoeste 0.8 966.4 0.5 97
2020-03-03 23:00:00 12 10 Sudoeste 20 Sudoeste 0 966.1 0 95
2020-03-03 22:00:00 11.7 8 Sudoeste 19 Sudoeste 0.2 966.2 0.2 93
2020-03-03 21:00:00 11.5 6 Sur 16 Sudoeste 0.2 965.9 0.7 93
2020-03-03 20:00:00 12.1 8 Sudoeste 14 Sudoeste 0 966.1 1.1 81
2020-03-03 19:00:00 12.6 10 Sudoeste 26 Sudoeste 0 966 1.2 75
2020-03-03 18:00:00 13.1 13 Sudoeste 28 Oeste 0 965.2 1.1 75
2020-03-03 17:00:00 13.6 15 Oeste 29 Oeste 0 965 1.1 70
2020-03-03 16:00:00 14.1 15 Oeste 30 Oeste 0 964.8 1 69
2020-03-03 15:00:00 15.1 9 Oeste 38 Oeste 0 964.1 0.7 69
2020-03-03 14:00:00 16.1 12 Oeste 42 Oeste 0 963.9 1.6 63
2020-03-03 13:00:00 15.4 11 Oeste 42 Oeste 0 963.8 2.8 70
2020-03-03 12:00:00 15.1 15 Oeste 35 Oeste 0 963.4 3.4 76
2020-03-03 11:00:00 13.2 10 Oeste 33 Noroeste 0 962.3 3.6 90
2020-03-03 10:00:00 12.3 19 Oeste 42 Oeste 0 961 2.4 97
2020-03-03 09:00:00 11.5 22 Oeste 41 Oeste 1.2 960 0.5 97
2020-03-03 08:00:00 10.6 22 Sudoeste 40 Sudoeste 1 958.7 -1.3 97
2020-03-03 07:00:00 9.2 19 Sudoeste 43 Sudoeste 0.8 958.6 -1.3 97
2020-03-03 06:00:00 8.4 20 Sudoeste 39 Sudoeste 0.4 959.5 -1.4 95
2020-03-03 05:00:00 7.4 13 Sudoeste 28 Sudoeste 1.6 960 -2.4 96
2020-03-03 04:00:00 7.2 14 Sudoeste 37 Sudoeste 0.6 959.9 -3.5 94
2020-03-03 03:00:00 7 14 Sudoeste 32 Sudoeste 0.6 960.9 -3.5 94
2020-03-03 02:00:00 6.8 11 Sur 26 Sur 0.6 962.4 -2.1 93
2020-03-03 01:00:00 6.7 13 Sudoeste 32 Sur 0.2 963.4 -1.1 92
2020-03-03 00:00:00 6.8 13 Sudoeste 27 Sudoeste 0 964.4 0.1 89
2020-03-02 23:00:00 6.6 16 Sudoeste 34 Sudoeste 0 964.5 -0.1 87
2020-03-02 22:00:00 6.5 15 Sudoeste 32 Sudoeste 0 964.5 0.3 85
2020-03-02 21:00:00 6.6 13 Sudoeste 23 Sudoeste 0 964.3 0.7 83
2020-03-02 20:00:00 6.2 8 Sudoeste 18 Sudoeste 0 964.6 1.6 90
2020-03-02 19:00:00 7.2 12 Sudoeste 26 Sudoeste 0 964.2 2.1 80
2020-03-02 18:00:00 8.2 11 Oeste 31 Oeste 0 963.6 1.1 74
2020-03-02 17:00:00 9.2 9 Noroeste 34 Oeste 0 963 1.2 68
2020-03-02 16:00:00 7.5 10 Oeste 28 Oeste 0.2 962.1 1 84
2020-03-02 15:00:00 5.9 9 Oeste 31 Nordeste 1.2 962.5 2.5 90
2020-03-02 14:00:00 7.9 10 Noroeste 48 Noroeste 0.2 961.8 2.7 74
2020-03-02 13:00:00 8.1 6 Norte 29 Oeste 0 961.1 3.4 75
2020-03-02 12:00:00 7.9 8 Oeste 25 Oeste 0 960 4.3 80
2020-03-02 11:00:00 5.4 11 Oeste 40 Sudoeste 0.4 959.1 4.6 89
2020-03-02 10:00:00 5.1 11 Noroeste 30 Norte 0.8 957.7 4.3 93
2020-03-02 09:00:00 5 3 Norte 12 Oeste 0 955.7 3.2 98
2020-03-02 08:00:00 4.7 5 Noroeste 26 Sudoeste 1.4 954.5 3.5 98
2020-03-02 07:00:00 4.6 10 Oeste 32 Oeste 1.2 953.4 3.8 94
2020-03-02 06:00:00 4.8 12 Oeste 41 Oeste 2.2 952.5 4.5 95
2020-03-02 05:00:00 6.1 12 Oeste 37 Oeste 1 951 6.3 93
2020-03-02 04:00:00 6.9 11 Oeste 43 Oeste 0.4 949.6 7.6 94
2020-03-02 03:00:00 7.8 12 Oeste 51 Noroeste 0.6 948 4.2 94
2020-03-02 02:00:00 9.8 11 Noroeste 61 Oeste 6.6 944.7 0.2 97
2020-03-02 01:00:00 11.5 25 Sudoeste 48 Sudoeste 0.4 942 -4.8 96
2020-03-02 00:00:00 11.3 34 Oeste 64 Oeste 5.4 943.8 -4.6 91
2020-03-01 23:00:00 9 9 Sudoeste 32 Sudoeste 6.4 944.5 -5.9 98
2020-03-01 22:00:00 8.5 13 Sudoeste 32 Sudoeste 1.8 946.8 -5.5 96
2020-03-01 21:00:00 8.5 13 Sur 33 Sur 2.6 948.4 -4.6 94
2020-03-01 20:00:00 9.2 15 Sur 31 Sudoeste 0.8 950.4 -4 93
2020-03-01 19:00:00 10 17 Sudoeste 42 Sudoeste 0.6 952.3 -3 86
2020-03-01 18:00:00 11.3 15 Sudoeste 41 Oeste 0 953 -2.6 71
2020-03-01 17:00:00 11.8 21 Sudoeste 51 Sudoeste 0 954.4 -2.3 63
2020-03-01 16:00:00 12.4 25 Sudoeste 46 Sudoeste 0 955.3 -1.7 56
2020-03-01 15:00:00 12.7 26 Oeste 55 Sudoeste 0 955.6 -1.7 56
2020-03-01 14:00:00 13 28 Sudoeste 49 Sudoeste 0 956.7 -1 55
2020-03-01 13:00:00 13 22 Sudoeste 48 Sudoeste 0 957 -0.6 63
2020-03-01 12:00:00 12.5 18 Sudoeste 36 Oeste 0 957.3 0.2 65
2020-03-01 11:00:00 11.1 14 Sudoeste 33 Oeste 0 957.7 0.9 74
2020-03-01 10:00:00 9.4 14 Sudoeste 32 Sudoeste 0 957.6 1.9 78
2020-03-01 09:00:00 9 16 Sudoeste 32 Oeste 0 957.1 1.9 78
2020-03-01 08:00:00 9.1 13 Oeste 34 Oeste 0 956.8 3.1 84
2020-03-01 07:00:00 9.5 17 Sudoeste 36 Sudoeste 0 955.7 1.1 89
2020-03-01 06:00:00 8.5 15 Oeste 29 Oeste 7.8 955.2 -0.7 97
2020-03-01 05:00:00 8.4 19 Sudoeste 45 Sur 0.8 953.7 -3 95
2020-03-01 04:00:00 7.7 17 Sur 38 Sur 0.4 954.6 -3.1 95
2020-03-01 03:00:00 7.8 17 Sudoeste 44 Sur 0 955.9 -3 91
2020-03-01 02:00:00 7.8 17 Sudoeste 43 Sudoeste 0 956.7 -2.6 86
2020-03-01 01:00:00 7.5 13 Sudoeste 31 Sudoeste 0 957.7 -1.8 86
2020-03-01 00:00:00 7.2 11 Sudoeste 29 Sudoeste 0.2 958.9 -0.7 88
2020-02-29 23:00:00 7.1 12 Sudoeste 27 Oeste 0 959.3 -0.3 92
2020-02-29 22:00:00 6.7 12 Sudoeste 33 Sudoeste 0.8 959.5 0.3 94
2020-02-29 21:00:00 7.4 15 Sudoeste 31 Sudoeste 0 959.6 0.6 86
2020-02-29 20:00:00 7.4 20 Sudoeste 36 Oeste 0 959.6 0.6 85
2020-02-29 19:00:00 7.6 19 Sudoeste 38 Oeste 0.2 959.2 0.8 89
2020-02-29 18:00:00 8.6 21 Oeste 45 Oeste 0 959 0.3 74
2020-02-29 17:00:00 9.4 20 Oeste 44 Sudoeste 0 959 0 75
2020-02-29 16:00:00 10.5 20 Oeste 42 Oeste 0 958.4 -0.4 69
2020-02-29 15:00:00 9.5 18 Sudoeste 44 Sudoeste 0 958.7 -0.2 71
2020-02-29 14:00:00 9.2 18 Oeste 46 Oeste 0.4 959 0.9 84
2020-02-29 13:00:00 10.7 21 Oeste 45 Oeste 0 958.8 1.3 68
2020-02-29 12:00:00 9.8 26 Oeste 49 Oeste 0 958.9 2.4 70
2020-02-29 11:00:00 9.6 23 Oeste 43 Sudoeste 0 958.1 2.8 74
2020-02-29 10:00:00 8.7 21 Oeste 40 Sudoeste 0 957.5 3.1 78
2020-02-29 09:00:00 8.4 21 Sudoeste 37 Oeste 0 956.5 3 75
2020-02-29 08:00:00 8.8 19 Sudoeste 38 Sudoeste 0.2 955.3 2.1 80
2020-02-29 07:00:00 9.2 17 Oeste 36 Oeste 0.4 954.4 2.3 90
2020-02-29 06:00:00 10 21 Sudoeste 46 Sudoeste 0.4 953.5 1.5 90
2020-02-29 05:00:00 9.6 27 Sudoeste 59 Sudoeste 4.6 953.2 -0.7 95
2020-02-29 04:00:00 8.5 18 Sudoeste 41 Sur 1.6 952.1 -4.4 93
2020-02-29 03:00:00 8.5 19 Sur 45 Sur 0.6 952 -5.3 82
2020-02-29 02:00:00 8 15 Sudoeste 41 Sudoeste 1 953.9 -3.7 81
2020-02-29 01:00:00 10.4 20 Sudoeste 50 Oeste 0 956.5 -1.9 54
2020-02-29 00:00:00 10.4 24 Sudoeste 45 Sudoeste 0 957.3 -1.9 51